createdAt,value
2018-04-13T00:00:57.442Z,2.30
2018-04-13T00:03:26.344Z,2.73
2018-04-13T00:05:54.502Z,1.87
2018-04-13T00:08:23.412Z,1.90
2018-04-13T00:10:51.537Z,2.13
2018-04-13T00:13:19.694Z,4.30
2018-04-13T00:15:47.805Z,3.47
2018-04-13T00:18:16.724Z,2.43
2018-04-13T00:20:44.861Z,3.97
2018-04-13T00:23:13.760Z,2.37
2018-04-13T00:25:42.657Z,2.30
2018-04-13T00:28:10.780Z,2.53
2018-04-13T00:30:39.096Z,2.10
2018-04-13T00:33:07.972Z,4.90
2018-04-13T00:35:36.876Z,2.17
2018-04-13T00:38:04.995Z,2.47
2018-04-13T00:40:33.128Z,1.80
2018-04-13T00:43:01.254Z,2.30
2018-04-13T00:45:29.404Z,2.13
2018-04-13T00:47:57.542Z,2.10
2018-04-13T00:50:25.684Z,3.87
2018-04-13T00:53:05.660Z,4.90
2018-04-13T00:55:33.841Z,2.00
2018-04-13T00:58:01.965Z,2.13
2018-04-13T01:00:30.094Z,2.40
2018-04-13T01:02:58.231Z,2.30
2018-04-13T01:05:27.237Z,2.57
2018-04-13T01:07:55.385Z,2.50
2018-04-13T01:10:24.273Z,2.50
2018-04-13T01:12:53.174Z,5.20
2018-04-13T01:15:22.049Z,4.80
2018-04-13T01:17:50.184Z,2.40
2018-04-13T01:20:18.315Z,7.80
2018-04-13T01:22:46.458Z,4.30
2018-04-13T01:25:30.296Z,2.63
2018-04-13T01:27:58.431Z,2.30
2018-04-13T01:30:26.562Z,3.57
2018-04-13T01:32:55.468Z,3.73
2018-04-13T01:35:23.604Z,3.43
2018-04-13T01:37:51.759Z,2.53
2018-04-13T01:42:55.130Z,2.83
2018-04-13T01:45:23.244Z,2.73
2018-04-13T01:47:51.357Z,4.00
2018-04-13T01:50:19.498Z,2.30
2018-04-13T01:52:47.620Z,3.13
2018-04-13T01:55:15.755Z,2.47
2018-04-13T01:57:44.653Z,2.67
2018-04-13T02:00:13.559Z,2.70
2018-04-13T02:02:41.687Z,2.73
2018-04-13T02:05:09.832Z,2.90
2018-04-13T02:07:37.957Z,2.60
2018-04-13T02:10:06.869Z,2.60
2018-04-13T02:12:35.029Z,2.53
2018-04-13T02:15:03.164Z,2.87
2018-04-13T02:17:31.284Z,8.57
2018-04-13T02:19:59.504Z,2.87
2018-04-13T02:22:27.640Z,3.10
2018-04-13T02:24:55.767Z,2.73
2018-04-13T02:27:24.665Z,2.30
2018-04-13T02:29:53.601Z,2.97
2018-04-13T02:32:21.727Z,2.63
2018-04-13T02:34:49.877Z,2.83
2018-04-13T02:37:18.007Z,2.70
2018-04-13T02:39:46.149Z,2.40
2018-04-13T02:42:14.304Z,2.70
2018-04-13T02:44:42.427Z,4.00
2018-04-13T02:47:10.563Z,4.90
2018-04-13T02:49:38.691Z,3.20
2018-04-13T02:52:06.868Z,2.57
2018-04-13T02:54:35.002Z,3.60
2018-04-13T02:57:03.157Z,3.17
2018-04-13T02:59:31.297Z,6.20
2018-04-13T03:02:00.203Z,3.43
2018-04-13T03:04:29.461Z,3.70
2018-04-13T03:06:57.589Z,3.50
2018-04-13T03:09:25.709Z,3.37
2018-04-13T03:11:53.861Z,4.40
2018-04-13T03:14:21.975Z,4.10
2018-04-13T03:16:50.096Z,3.40
2018-04-13T03:19:18.224Z,4.10
2018-04-13T03:21:47.111Z,4.27
2018-04-13T03:24:16.022Z,3.90
2018-04-13T03:26:44.140Z,4.37
2018-04-13T03:29:12.284Z,3.77
2018-04-13T03:31:40.410Z,3.60
2018-04-13T03:34:08.545Z,4.00
2018-04-13T03:36:36.675Z,4.07
2018-04-13T03:39:05.501Z,4.03
2018-04-13T03:41:33.634Z,4.30
2018-04-13T03:44:01.771Z,4.17
2018-04-13T03:46:29.919Z,4.20
2018-04-13T03:48:58.068Z,4.47
2018-04-13T03:51:26.279Z,4.47
2018-04-13T03:53:54.464Z,4.90
2018-04-13T03:56:23.380Z,6.47
2018-04-13T03:58:51.515Z,6.87
2018-04-13T04:01:19.677Z,7.00
2018-04-13T04:03:47.833Z,6.63
2018-04-13T04:06:16.737Z,6.90
2018-04-13T04:08:44.864Z,6.47
2018-04-13T04:11:13.017Z,7.67
2018-04-13T04:13:41.920Z,6.57
2018-04-13T04:16:10.058Z,5.50
2018-04-13T04:18:38.330Z,5.93
2018-04-13T04:21:18.989Z,6.27
2018-04-13T04:23:58.894Z,7.60
2018-04-13T04:26:38.687Z,9.20
2018-04-13T04:29:07.673Z,8.30
2018-04-13T04:31:35.817Z,9.20
2018-04-13T04:34:03.945Z,10.10
2018-04-13T04:36:32.113Z,10.17
2018-04-13T04:39:01.010Z,10.43
2018-04-13T04:41:29.192Z,9.77
2018-04-13T04:43:57.324Z,10.00
2018-04-13T04:46:26.240Z,9.47
2018-04-13T04:48:55.129Z,10.40
2018-04-13T04:51:23.272Z,9.90
2018-04-13T04:53:51.422Z,8.23
2018-04-13T04:56:19.541Z,9.60
2018-04-13T04:58:48.436Z,7.83
2018-04-13T05:01:17.320Z,7.67
2018-04-13T05:03:45.471Z,10.97
2018-04-13T05:06:13.795Z,12.07
2018-04-13T05:08:41.944Z,13.80
2018-04-13T05:11:10.093Z,12.00
2018-04-13T05:13:39.019Z,12.43
2018-04-13T05:16:07.154Z,10.57
2018-04-13T05:18:36.104Z,11.60
2018-04-13T05:21:04.225Z,10.40
2018-04-13T05:23:32.357Z,11.40
2018-04-13T05:26:00.519Z,12.60
2018-04-13T05:28:28.663Z,11.97
2018-04-13T05:30:56.820Z,12.13
2018-04-13T05:33:24.963Z,14.00
2018-04-13T05:35:53.115Z,12.90
2018-04-13T05:38:21.250Z,12.67
2018-04-13T05:40:49.510Z,10.80
2018-04-13T05:43:17.672Z,11.80
2018-04-13T05:45:46.597Z,12.97
2018-04-13T05:48:14.728Z,13.53
2018-04-13T05:50:42.899Z,12.33
2018-04-13T05:53:11.080Z,10.90
2018-04-13T05:55:39.235Z,10.63
2018-04-13T05:58:07.373Z,10.17
2018-04-13T06:00:35.567Z,10.63
2018-04-13T06:03:03.704Z,11.00
2018-04-13T06:05:31.979Z,11.53
2018-04-13T06:08:00.146Z,10.73
2018-04-13T06:10:28.388Z,11.17
2018-04-13T06:12:56.540Z,12.40
2018-04-13T06:15:25.439Z,10.63
2018-04-13T06:17:54.385Z,10.57
2018-04-13T06:20:23.320Z,10.87
2018-04-13T06:22:52.230Z,10.80
2018-04-13T06:25:20.358Z,10.30
2018-04-13T06:27:48.492Z,9.50
2018-04-13T06:30:16.701Z,8.80
2018-04-13T06:32:44.848Z,9.00
2018-04-13T06:35:12.965Z,8.30
2018-04-13T06:37:41.884Z,8.00
2018-04-13T06:40:09.999Z,8.37
2018-04-13T06:42:38.124Z,8.83
2018-04-13T06:45:06.260Z,8.27
2018-04-13T06:47:35.170Z,9.70
2018-04-13T06:50:04.073Z,10.77
2018-04-13T06:52:32.326Z,9.77
2018-04-13T06:55:00.517Z,10.10
2018-04-13T06:57:28.664Z,8.60
2018-04-13T06:59:57.579Z,9.50
2018-04-13T07:02:25.756Z,9.10
2018-04-13T07:04:54.029Z,9.20
2018-04-13T07:07:22.164Z,8.80
2018-04-13T07:09:51.072Z,7.37
2018-04-13T07:12:19.234Z,5.40
2018-04-13T07:14:48.128Z,5.60
2018-04-13T07:17:17.017Z,6.17
2018-04-13T07:19:45.928Z,5.67
2018-04-13T07:22:14.054Z,4.83
2018-04-13T07:24:42.211Z,5.73
2018-04-13T07:27:10.365Z,6.17
2018-04-13T07:29:38.496Z,5.20
2018-04-13T07:32:07.500Z,5.73
2018-04-13T07:34:36.004Z,6.60
2018-04-13T07:37:04.147Z,6.43
2018-04-13T07:39:32.269Z,6.70
2018-04-13T07:42:00.459Z,7.13
2018-04-13T07:44:29.359Z,7.83
2018-04-13T07:46:58.259Z,8.40
2018-04-13T07:49:27.140Z,9.23
2018-04-13T07:51:55.516Z,10.40
2018-04-13T07:54:24.198Z,10.03
2018-04-13T07:56:53.112Z,9.10
2018-04-13T07:59:21.442Z,10.50
2018-04-13T08:01:49.396Z,12.20
2018-04-13T08:04:18.324Z,12.20
2018-04-13T08:06:46.749Z,11.93
2018-04-13T08:09:15.400Z,10.90
2018-04-13T08:11:44.312Z,12.33
2018-04-13T08:14:12.463Z,14.87
2018-04-13T08:16:40.592Z,12.77
2018-04-13T08:19:08.743Z,11.20
2018-04-13T08:21:36.919Z,11.77
2018-04-13T08:24:05.128Z,12.77
2018-04-13T08:26:33.265Z,12.50
2018-04-13T08:29:01.424Z,11.57
2018-04-13T08:31:29.636Z,12.70
2018-04-13T08:33:57.895Z,12.43
2018-04-13T08:36:26.060Z,12.83
2018-04-13T08:38:54.208Z,12.47
2018-04-13T08:41:22.337Z,10.87
2018-04-13T08:43:51.257Z,13.13
2018-04-13T08:46:19.379Z,11.53
2018-04-13T08:48:47.676Z,12.10
2018-04-13T08:51:15.700Z,11.20
2018-04-13T08:53:43.844Z,12.57
2018-04-13T08:56:12.001Z,12.43
2018-04-13T08:58:40.930Z,11.40
2018-04-13T09:01:09.067Z,14.83
2018-04-13T09:03:37.202Z,14.87
2018-04-13T09:06:05.347Z,17.67
2018-04-13T09:08:33.513Z,15.20
2018-04-13T09:11:01.634Z,15.50
2018-04-13T09:13:30.549Z,17.57
2018-04-13T09:15:59.100Z,13.17
2018-04-13T09:18:27.217Z,20.70
2018-04-13T09:20:55.369Z,19.90
2018-04-13T09:23:23.501Z,13.63
2018-04-13T09:25:51.662Z,11.40
2018-04-13T09:28:19.812Z,11.50
2018-04-13T09:30:47.975Z,11.57
2018-04-13T09:33:16.116Z,10.70
2018-04-13T09:35:44.276Z,9.70
2018-04-13T09:38:13.159Z,10.80
2018-04-13T09:40:42.065Z,9.30
2018-04-13T09:43:10.194Z,11.33
2018-04-13T09:45:38.330Z,12.63
2018-04-13T09:48:06.482Z,12.07
2018-04-13T09:50:34.613Z,14.23
2018-04-13T09:53:02.758Z,14.67
2018-04-13T09:55:31.004Z,12.40
2018-04-13T09:57:59.171Z,12.93
2018-04-13T10:00:30.229Z,12.83
2018-04-13T10:03:03.252Z,11.67
2018-04-13T10:05:31.390Z,13.03
2018-04-13T10:07:59.525Z,13.63
2018-04-13T10:10:28.812Z,14.70
2018-04-13T10:12:56.960Z,12.83
2018-04-13T10:15:25.104Z,11.97
2018-04-13T10:17:53.229Z,11.80
2018-04-13T10:20:22.149Z,10.30
2018-04-13T10:22:50.292Z,11.03
2018-04-13T10:25:19.192Z,9.10
2018-04-13T10:27:48.122Z,8.80
2018-04-13T10:30:16.242Z,8.20
2018-04-13T10:32:45.227Z,8.10
2018-04-13T10:35:13.355Z,9.27
2018-04-13T10:37:41.483Z,8.20
2018-04-13T10:40:10.375Z,9.67
2018-04-13T10:42:38.553Z,10.27
2018-04-13T10:45:06.703Z,10.43
2018-04-13T10:47:34.827Z,10.80
2018-04-13T10:50:02.973Z,11.00
2018-04-13T10:52:31.132Z,10.23
2018-04-13T10:54:59.291Z,9.70
2018-04-13T10:57:27.405Z,9.77
2018-04-13T10:59:55.658Z,9.63
2018-04-13T11:02:23.784Z,9.70
2018-04-13T11:04:51.924Z,10.30
2018-04-13T11:07:20.279Z,10.70
2018-04-13T11:09:48.425Z,9.37
2018-04-13T11:12:16.545Z,9.10
2018-04-13T11:14:44.685Z,8.80
2018-04-13T11:17:13.582Z,8.20
2018-04-13T11:19:41.752Z,6.90
2018-04-13T11:22:10.132Z,6.60
2018-04-13T11:24:38.297Z,8.73
2018-04-13T11:27:06.428Z,7.30
2018-04-13T11:29:34.549Z,7.03
2018-04-13T11:32:02.684Z,7.33
2018-04-13T11:34:31.584Z,7.37
2018-04-13T11:37:00.536Z,5.60
2018-04-13T11:39:28.656Z,5.67
2018-04-13T11:41:56.792Z,5.70
2018-04-13T11:44:24.922Z,5.27
2018-04-13T11:46:53.057Z,7.87
2018-04-13T11:49:21.953Z,6.67
2018-04-13T11:51:50.885Z,6.43
2018-04-13T11:54:18.989Z,6.80
2018-04-13T11:56:47.124Z,7.00
2018-04-13T11:59:15.256Z,7.30
2018-04-13T12:01:44.160Z,7.20
2018-04-13T12:04:12.288Z,8.03
2018-04-13T12:06:40.426Z,6.83
2018-04-13T12:09:08.548Z,7.20
2018-04-13T12:11:37.457Z,8.00
2018-04-13T12:14:05.635Z,8.77
2018-04-13T12:16:33.779Z,9.43
2018-04-13T12:19:01.950Z,9.60
2018-04-13T12:21:30.102Z,11.10
2018-04-13T12:23:58.228Z,13.50
2018-04-13T12:26:26.437Z,13.10
2018-04-13T12:28:54.574Z,12.97
2018-04-13T12:31:23.611Z,15.63
2018-04-13T12:33:51.762Z,16.90
2018-04-13T12:36:19.881Z,18.53
2018-04-13T12:38:48.832Z,21.13
2018-04-13T12:41:16.951Z,23.50
2018-04-13T12:43:45.091Z,26.40
2018-04-13T12:46:13.933Z,26.47
2018-04-13T12:48:42.072Z,25.37
2018-04-13T12:51:11.000Z,26.40
2018-04-13T12:53:39.166Z,22.90
2018-04-13T12:56:07.293Z,24.60
2018-04-13T12:58:35.469Z,23.00
2018-04-13T13:01:04.353Z,20.30
2018-04-13T13:03:33.267Z,19.20
2018-04-13T13:06:02.165Z,18.73
2018-04-13T13:08:30.318Z,17.23
2018-04-13T13:10:59.209Z,12.13
2018-04-13T13:13:28.120Z,10.60
2018-04-13T13:15:56.243Z,10.93
2018-04-13T13:18:24.385Z,11.37
2018-04-13T13:20:52.530Z,11.97
2018-04-13T13:23:20.705Z,12.10
2018-04-13T13:25:48.862Z,12.10
2018-04-13T13:28:17.001Z,11.70
2018-04-13T13:30:45.189Z,13.50
2018-04-13T13:33:14.089Z,13.67
2018-04-13T13:35:42.237Z,12.37
2018-04-13T13:38:10.721Z,13.87
2018-04-13T13:40:38.865Z,12.10
2018-04-13T13:43:08.211Z,12.20
2018-04-13T13:45:36.356Z,10.33
2018-04-13T13:48:04.492Z,9.40
2018-04-13T13:50:32.655Z,9.40
2018-04-13T13:53:00.768Z,9.70
2018-04-13T13:55:28.913Z,8.93
2018-04-13T13:57:57.036Z,8.37
2018-04-13T14:00:25.934Z,7.57
2018-04-13T14:02:54.440Z,7.43
2018-04-13T14:05:22.575Z,8.00
2018-04-13T14:07:51.454Z,7.27
2018-04-13T14:10:20.341Z,7.73
2018-04-13T14:12:48.479Z,6.47
2018-04-13T14:15:16.607Z,4.83
2018-04-13T14:17:44.759Z,4.87
2018-04-13T14:20:12.865Z,4.13
2018-04-13T14:22:41.036Z,4.23
2018-04-13T14:25:09.566Z,3.80
2018-04-13T14:27:37.704Z,3.80
2018-04-13T14:30:05.831Z,4.47
2018-04-13T14:32:33.961Z,3.87
2018-04-13T14:35:02.090Z,4.70
2018-04-13T14:37:30.224Z,3.83
2018-04-13T14:39:58.356Z,4.43
2018-04-13T14:42:26.504Z,4.33
2018-04-13T14:44:54.629Z,4.40
2018-04-13T14:47:23.412Z,4.57
2018-04-13T14:49:51.525Z,4.30
2018-04-13T14:52:19.673Z,4.70
2018-04-13T14:54:47.804Z,4.20
2018-04-13T14:57:15.953Z,4.37
2018-04-13T14:59:44.093Z,3.83
2018-04-13T15:02:12.246Z,3.23
2018-04-13T15:04:40.379Z,4.03
2018-04-13T15:07:08.545Z,3.37
2018-04-13T15:09:36.680Z,2.77
2018-04-13T15:12:05.583Z,2.87
2018-04-13T15:14:33.724Z,2.90
2018-04-13T15:17:01.849Z,2.93
2018-04-13T15:19:29.996Z,3.07
2018-04-13T15:21:58.108Z,2.73
2018-04-13T15:24:26.253Z,2.77
2018-04-13T15:26:54.424Z,2.43
2018-04-13T15:29:23.140Z,2.20
2018-04-13T15:31:51.274Z,2.50
2018-04-13T15:34:19.449Z,1.70
2018-04-13T15:36:48.698Z,1.33
2018-04-13T15:39:19.600Z,1.40
2018-04-13T15:41:47.777Z,1.60
2018-04-13T15:44:15.940Z,1.27
2018-04-13T15:46:44.056Z,1.10
2018-04-13T15:49:12.200Z,1.00
2018-04-13T15:51:40.332Z,1.40
2018-04-13T15:54:08.462Z,1.40
2018-04-13T15:56:36.581Z,2.00
2018-04-13T15:59:04.746Z,1.60
2018-04-13T16:01:32.874Z,2.53
2018-04-13T16:04:00.991Z,1.93
2018-04-13T16:06:29.137Z,2.43
2018-04-13T16:08:58.099Z,2.53
2018-04-13T16:11:26.247Z,2.00
2018-04-13T16:13:54.369Z,1.80
2018-04-13T16:16:23.264Z,1.90
2018-04-13T16:18:52.276Z,1.80
2018-04-13T16:21:20.408Z,1.87
2018-04-13T16:23:48.633Z,1.60
2018-04-13T16:26:16.768Z,1.53
2018-04-13T16:28:45.669Z,1.87
2018-04-13T16:31:14.569Z,1.80
2018-04-13T16:33:42.679Z,2.23
2018-04-13T16:36:10.849Z,3.00
2018-04-13T16:38:38.996Z,3.40
2018-04-13T16:41:07.128Z,3.60
2018-04-13T16:43:36.026Z,3.10
2018-04-13T16:46:04.927Z,3.53
2018-04-13T16:48:33.047Z,3.33
2018-04-13T16:51:01.169Z,2.87
2018-04-13T16:53:29.304Z,3.13
2018-04-13T16:55:57.456Z,3.30
2018-04-13T16:58:25.560Z,2.80
2018-04-13T17:00:54.440Z,2.87
2018-04-13T17:03:22.582Z,2.97
2018-04-13T17:05:50.691Z,2.70
2018-04-13T17:08:19.607Z,2.67
2018-04-13T17:10:47.748Z,2.83
2018-04-13T17:13:15.871Z,3.60
2018-04-13T17:15:44.006Z,3.30
2018-04-13T17:18:12.936Z,3.40
2018-04-13T17:20:41.104Z,4.73
2018-04-13T17:23:09.236Z,2.90
2018-04-13T17:25:38.139Z,3.47
2018-04-13T17:28:06.252Z,3.27
2018-04-13T17:30:34.390Z,3.03
2018-04-13T17:33:02.535Z,3.10
2018-04-13T17:35:30.672Z,3.50
2018-04-13T17:37:58.844Z,3.40
2018-04-13T17:40:27.016Z,3.50
2018-04-13T17:42:55.128Z,3.10
2018-04-13T17:45:23.305Z,4.20
2018-04-13T17:47:52.188Z,3.37
2018-04-13T17:50:21.197Z,3.80
2018-04-13T17:52:49.321Z,4.47
2018-04-13T17:55:17.475Z,4.20
2018-04-13T17:57:45.592Z,4.27
2018-04-13T18:00:14.476Z,4.50
2018-04-13T18:02:42.608Z,4.37
2018-04-13T18:05:10.749Z,4.50
2018-04-13T18:07:38.880Z,5.53
2018-04-13T18:10:07.006Z,4.80
2018-04-13T18:12:35.152Z,5.03
2018-04-13T18:15:03.299Z,5.20
2018-04-13T18:17:31.431Z,5.47
2018-04-13T18:19:59.561Z,3.20
2018-04-13T18:22:28.490Z,4.17
2018-04-13T18:24:56.608Z,4.20
2018-04-13T18:27:25.515Z,4.60
2018-04-13T18:29:53.639Z,3.90
2018-04-13T18:32:21.769Z,3.30
2018-04-13T18:34:49.895Z,3.20
2018-04-13T18:37:18.029Z,3.70
2018-04-13T18:39:46.148Z,3.60
2018-04-13T18:42:15.099Z,4.03
2018-04-13T18:44:43.193Z,3.40
2018-04-13T18:47:11.364Z,3.63
2018-04-13T18:49:39.496Z,4.27
2018-04-13T18:52:07.621Z,4.00
2018-04-13T18:54:35.792Z,4.60
2018-04-13T18:57:04.298Z,4.80
2018-04-13T18:59:32.441Z,4.60
2018-04-13T19:02:00.561Z,4.90
2018-04-13T19:04:28.710Z,5.07
2018-04-13T19:06:57.973Z,4.77
2018-04-13T19:09:26.131Z,4.73
2018-04-13T19:11:54.229Z,5.03
2018-04-13T19:14:22.417Z,5.40
2018-04-13T19:16:51.300Z,5.10
2018-04-13T19:19:20.213Z,5.83
2018-04-13T19:21:48.351Z,5.10
2018-04-13T19:24:16.489Z,5.73
2018-04-13T19:26:44.608Z,4.60
2018-04-13T19:29:12.745Z,4.70
2018-04-13T19:31:40.885Z,5.47
2018-04-13T19:34:09.153Z,5.10
2018-04-13T19:36:37.405Z,5.30
2018-04-13T19:39:06.317Z,6.20
2018-04-13T19:41:34.572Z,7.17
2018-04-13T19:44:02.752Z,5.77
2018-04-13T19:46:30.897Z,4.80
2018-04-13T19:48:59.799Z,5.17
2018-04-13T19:51:27.964Z,4.70
2018-04-13T19:53:56.869Z,4.33
2018-04-13T19:56:25.816Z,5.30
2018-04-13T19:58:53.938Z,5.37
2018-04-13T20:01:22.083Z,5.17
2018-04-13T20:03:50.985Z,5.60
2018-04-13T20:06:19.920Z,6.10
2018-04-13T20:08:48.166Z,5.50
2018-04-13T20:11:16.413Z,5.60
2018-04-13T20:13:44.538Z,5.60
2018-04-13T20:16:20.383Z,6.10
2018-04-13T20:18:48.496Z,6.03
2018-04-13T20:21:16.641Z,5.77
2018-04-13T20:23:44.765Z,5.53
2018-04-13T20:26:12.901Z,5.10
2018-04-13T20:28:41.082Z,5.20
2018-04-13T20:31:09.220Z,5.40
2018-04-13T20:33:37.358Z,5.50
2018-04-13T20:36:05.477Z,5.17
2018-04-13T20:38:34.429Z,5.43
2018-04-13T20:41:02.714Z,5.50
2018-04-13T20:43:31.077Z,5.10
2018-04-13T20:45:59.221Z,5.40
2018-04-13T20:48:27.379Z,5.30
2018-04-13T20:50:55.548Z,4.73
2018-04-13T20:53:23.684Z,5.03
2018-04-13T20:55:51.824Z,4.30
2018-04-13T20:58:19.968Z,4.80
2018-04-13T21:00:48.085Z,5.20
2018-04-13T21:03:16.224Z,5.23
2018-04-13T21:05:45.141Z,4.60
2018-04-13T21:08:13.267Z,5.90
2018-04-13T21:10:41.393Z,5.53
2018-04-13T21:13:09.541Z,4.60
2018-04-13T21:15:37.682Z,4.97
2018-04-13T21:18:05.822Z,5.80
2018-04-13T21:20:33.932Z,5.50
2018-04-13T21:23:02.828Z,6.63
2018-04-13T21:25:31.729Z,5.37
2018-04-13T21:28:00.639Z,5.03
2018-04-13T21:30:28.824Z,4.00
2018-04-13T21:32:57.713Z,4.10
2018-04-13T21:35:25.866Z,6.03
2018-04-13T21:37:53.997Z,6.70
2018-04-13T21:40:22.144Z,5.80
2018-04-13T21:42:50.304Z,4.53
2018-04-13T21:45:18.435Z,4.67
2018-04-13T21:47:46.569Z,4.97
2018-04-13T21:50:14.740Z,5.30
2018-04-13T21:52:42.877Z,5.40
2018-04-13T21:55:11.026Z,5.93
2018-04-13T21:57:39.922Z,5.53
2018-04-13T22:00:08.058Z,5.10
2018-04-13T22:02:36.187Z,4.93
2018-04-13T22:05:04.380Z,7.10
2018-04-13T22:07:32.534Z,5.30
2018-04-13T22:10:00.664Z,4.70
2018-04-13T22:12:41.431Z,5.63
2018-04-13T22:15:10.391Z,5.97
2018-04-13T22:17:38.530Z,6.43
2018-04-13T22:20:06.648Z,6.00
2018-04-13T22:22:34.789Z,7.53
2018-04-13T22:25:02.911Z,6.87
2018-04-13T22:27:31.844Z,6.87
2018-04-13T22:29:59.984Z,6.03
2018-04-13T22:32:28.134Z,7.63
2018-04-13T22:34:56.309Z,5.90
2018-04-13T22:37:25.213Z,6.57
2018-04-13T22:39:53.365Z,7.27
2018-04-13T22:42:21.495Z,6.43
2018-04-13T22:44:49.608Z,6.73
2018-04-13T22:47:18.527Z,6.43
2018-04-13T22:49:46.671Z,7.40
2018-04-13T22:52:14.818Z,6.00
2018-04-13T22:54:42.943Z,6.20
2018-04-13T22:57:11.149Z,6.20
2018-04-13T22:59:39.264Z,5.97
2018-04-13T23:02:08.154Z,6.73
2018-04-13T23:04:37.072Z,6.27
2018-04-13T23:07:05.211Z,6.83
2018-04-13T23:09:34.121Z,6.60
2018-04-13T23:12:02.278Z,6.43
2018-04-13T23:14:31.224Z,7.53
2018-04-13T23:16:59.350Z,7.40
2018-04-13T23:19:27.493Z,6.43
2018-04-13T23:21:55.641Z,6.80
2018-04-13T23:24:23.781Z,5.93
2018-04-13T23:26:51.912Z,6.57
2018-04-13T23:29:20.056Z,6.60
2018-04-13T23:31:48.223Z,6.90
2018-04-13T23:34:16.341Z,6.10
2018-04-13T23:36:45.261Z,5.70
2018-04-13T23:39:13.412Z,5.23
2018-04-13T23:41:41.569Z,4.70
2018-04-13T23:44:10.515Z,5.30
2018-04-13T23:46:38.636Z,5.63
2018-04-13T23:49:07.516Z,5.23
2018-04-13T23:51:36.421Z,5.10
2018-04-13T23:54:04.561Z,5.43
2018-04-13T23:56:32.694Z,5.40
2018-04-13T23:59:00.813Z,5.17
